createdAt,value
2018-07-30T00:01:33.488Z,24.00
2018-07-30T00:05:37.126Z,24.00
2018-07-30T00:09:40.828Z,24.00
2018-07-30T00:13:44.492Z,24.00
2018-07-30T00:17:48.174Z,24.00
2018-07-30T00:21:51.876Z,23.90
2018-07-30T00:29:58.851Z,23.90
2018-07-30T00:34:02.714Z,23.90
2018-07-30T00:38:06.364Z,23.90
2018-07-30T00:42:10.147Z,23.90
2018-07-30T00:46:13.810Z,23.90
2018-07-30T00:50:17.902Z,23.90
2018-07-30T00:54:21.580Z,23.80
2018-07-30T00:58:25.249Z,23.80
2018-07-30T01:02:28.936Z,23.90
2018-07-30T01:06:32.576Z,23.80
2018-07-30T01:10:38.210Z,23.90
2018-07-30T01:14:41.917Z,23.90
2018-07-30T01:18:45.643Z,23.80
2018-07-30T01:22:49.346Z,23.80
2018-07-30T01:26:53.014Z,23.80
2018-07-30T01:30:56.703Z,23.80
2018-07-30T01:35:00.476Z,23.80
2018-07-30T01:39:05.457Z,23.80
2018-07-30T01:43:09.195Z,23.80
2018-07-30T01:47:12.869Z,23.80
2018-07-30T01:51:16.531Z,23.80
2018-07-30T01:55:20.241Z,23.80
2018-07-30T01:59:23.936Z,23.80
2018-07-30T02:03:27.669Z,23.80
2018-07-30T02:07:31.484Z,23.90
2018-07-30T02:11:35.153Z,23.90
2018-07-30T02:15:38.853Z,23.90
2018-07-30T02:19:42.598Z,23.90
2018-07-30T02:23:46.294Z,23.90
2018-07-30T02:27:50.043Z,23.90
2018-07-30T02:31:53.752Z,23.90
2018-07-30T02:35:57.440Z,23.90
2018-07-30T02:40:01.160Z,23.90
2018-07-30T02:44:04.964Z,23.80
2018-07-30T02:48:08.682Z,23.80
2018-07-30T02:52:12.388Z,23.80
2018-07-30T02:56:16.081Z,23.80
2018-07-30T03:00:19.804Z,23.70
2018-07-30T03:04:23.537Z,23.70
2018-07-30T03:08:27.211Z,23.70
2018-07-30T03:12:30.897Z,23.60
2018-07-30T03:16:34.748Z,23.60
2018-07-30T03:20:38.465Z,23.50
2018-07-30T03:24:42.201Z,23.50
2018-07-30T03:28:45.960Z,23.40
2018-07-30T03:32:49.708Z,23.40
2018-07-30T03:36:53.405Z,23.40
2018-07-30T03:40:57.079Z,23.30
2018-07-30T03:45:00.772Z,23.30
2018-07-30T03:49:04.576Z,23.20
2018-07-30T03:53:08.254Z,23.20
2018-07-30T03:57:11.914Z,23.10
2018-07-30T04:01:15.604Z,23.10
2018-07-30T04:05:19.340Z,23.10
2018-07-30T04:09:23.015Z,23.10
2018-07-30T04:13:26.727Z,23.00
2018-07-30T04:17:30.416Z,23.00
2018-07-30T04:21:34.070Z,23.00
2018-07-30T04:25:37.760Z,23.00
2018-07-30T04:29:41.448Z,23.00
2018-07-30T04:33:45.155Z,22.90
2018-07-30T04:37:48.791Z,22.90
2018-07-30T04:41:52.512Z,22.90
2018-07-30T04:45:56.441Z,22.90
2018-07-30T04:50:00.200Z,22.90
2018-07-30T04:54:04.078Z,23.00
2018-07-30T04:58:07.754Z,23.00
2018-07-30T05:02:11.465Z,23.10
2018-07-30T05:06:15.160Z,23.20
2018-07-30T05:10:18.882Z,23.30
2018-07-30T05:14:22.548Z,23.30
2018-07-30T05:18:26.197Z,23.40
2018-07-30T05:22:29.888Z,23.50
2018-07-30T05:26:33.560Z,23.60
2018-07-30T05:30:37.299Z,23.70
2018-07-30T05:34:40.973Z,23.70
2018-07-30T05:38:44.598Z,23.80
2018-07-30T05:42:48.395Z,23.90
2018-07-30T05:46:52.155Z,24.00
2018-07-30T05:50:55.857Z,24.10
2018-07-30T05:54:59.628Z,24.10
2018-07-30T05:59:03.729Z,24.20
2018-07-30T06:03:07.388Z,24.30
2018-07-30T06:07:11.127Z,24.40
2018-07-30T06:11:14.824Z,24.50
2018-07-30T06:15:18.513Z,24.60
2018-07-30T06:19:22.245Z,24.70
2018-07-30T06:23:25.959Z,24.80
2018-07-30T06:31:33.021Z,25.20
2018-07-30T06:35:36.717Z,25.20
2018-07-30T06:39:40.403Z,25.50
2018-07-30T06:43:44.072Z,26.30
2018-07-30T06:47:47.754Z,27.70
2018-07-30T06:51:51.407Z,29.50
2018-07-30T06:55:55.120Z,30.70
2018-07-30T06:59:58.823Z,31.10
2018-07-30T07:04:02.520Z,31.30
2018-07-30T07:08:06.455Z,31.60
2018-07-30T07:12:10.205Z,31.70
2018-07-30T07:16:13.967Z,31.70
2018-07-30T07:20:17.680Z,31.60
2018-07-30T07:24:21.338Z,31.50
2018-07-30T07:28:25.033Z,31.20
2018-07-30T07:32:28.719Z,30.80
2018-07-30T07:36:32.509Z,30.50
2018-07-30T07:40:36.272Z,30.70
2018-07-30T07:44:40.177Z,31.50
2018-07-30T07:48:43.878Z,32.70
2018-07-30T07:52:47.564Z,33.80
2018-07-30T07:56:51.389Z,34.60
2018-07-30T08:00:55.157Z,35.30
2018-07-30T08:04:58.897Z,36.00
2018-07-30T08:09:02.646Z,36.60
2018-07-30T08:13:06.464Z,36.90
2018-07-30T08:17:10.197Z,37.20
2018-07-30T08:21:13.921Z,37.60
2018-07-30T08:25:17.656Z,37.90
2018-07-30T08:29:21.332Z,38.20
2018-07-30T08:33:25.024Z,38.40
2018-07-30T08:37:28.734Z,38.50
2018-07-30T08:41:32.443Z,38.50
2018-07-30T08:45:36.151Z,38.60
2018-07-30T08:49:39.853Z,38.70
2018-07-30T08:53:43.564Z,38.80
2018-07-30T08:57:47.259Z,38.80
2018-07-30T09:01:50.947Z,38.80
2018-07-30T09:05:54.632Z,38.70
2018-07-30T09:09:58.344Z,38.60
2018-07-30T09:14:02.007Z,38.20
2018-07-30T09:18:05.752Z,37.60
2018-07-30T09:22:09.536Z,36.80
2018-07-30T09:26:13.256Z,36.00
2018-07-30T09:30:16.993Z,35.30
2018-07-30T09:34:20.706Z,34.70
2018-07-30T09:38:24.438Z,34.20
2018-07-30T09:42:28.245Z,33.70
2018-07-30T09:46:32.000Z,33.40
2018-07-30T09:50:35.753Z,33.20
2018-07-30T09:54:39.560Z,33.10
2018-07-30T09:58:43.667Z,32.90
2018-07-30T10:02:47.437Z,32.80
2018-07-30T10:06:51.122Z,32.80
2018-07-30T10:10:56.476Z,32.70
2018-07-30T10:15:00.147Z,32.60
2018-07-30T10:19:03.881Z,32.50
2018-07-30T10:23:07.696Z,32.40
2018-07-30T10:27:11.385Z,32.40
2018-07-30T10:31:15.133Z,32.40
2018-07-30T10:35:18.799Z,32.40
2018-07-30T10:39:22.484Z,32.40
2018-07-30T10:43:26.165Z,32.40
2018-07-30T10:47:29.872Z,32.40
2018-07-30T10:51:33.528Z,32.40
2018-07-30T10:55:37.213Z,32.40
2018-07-30T10:59:40.911Z,32.40
2018-07-30T11:03:44.644Z,32.40
2018-07-30T11:07:48.449Z,32.40
2018-07-30T11:11:52.114Z,32.30
2018-07-30T11:15:55.795Z,32.30
2018-07-30T11:19:59.547Z,32.30
2018-07-30T11:24:03.224Z,32.30
2018-07-30T11:28:06.973Z,32.30
2018-07-30T11:32:10.750Z,32.40
2018-07-30T11:36:14.440Z,32.50
2018-07-30T11:40:18.124Z,32.60
2018-07-30T11:44:21.888Z,32.60
2018-07-30T11:48:25.554Z,32.70
2018-07-30T11:52:29.225Z,32.80
2018-07-30T11:56:32.918Z,32.90
2018-07-30T12:00:36.639Z,33.00
2018-07-30T12:04:40.287Z,33.10
2018-07-30T12:08:44.128Z,33.20
2018-07-30T12:12:47.784Z,33.40
2018-07-30T12:16:51.515Z,33.50
2018-07-30T12:20:55.264Z,33.70
2018-07-30T12:24:59.177Z,33.90
2018-07-30T12:29:02.872Z,34.10
2018-07-30T12:33:06.655Z,34.40
2018-07-30T12:37:10.336Z,34.50
2018-07-30T12:41:14.056Z,34.70
2018-07-30T12:45:21.900Z,34.70
2018-07-30T12:49:25.565Z,34.80
2018-07-30T12:53:29.289Z,34.90
2018-07-30T12:57:32.985Z,35.00
2018-07-30T13:01:36.660Z,35.20
2018-07-30T13:05:40.305Z,35.30
2018-07-30T13:09:43.968Z,35.50
2018-07-30T13:13:47.715Z,35.50
2018-07-30T13:17:51.374Z,35.60
2018-07-30T13:21:55.156Z,35.60
2018-07-30T13:25:58.880Z,35.50
2018-07-30T13:30:02.580Z,35.40
2018-07-30T13:34:06.348Z,35.40
2018-07-30T13:38:10.031Z,35.40
2018-07-30T13:42:13.669Z,35.50
2018-07-30T13:46:17.400Z,35.60
2018-07-30T13:50:21.072Z,35.80
2018-07-30T13:54:24.830Z,35.90
2018-07-30T13:58:28.557Z,35.90
2018-07-30T14:02:32.208Z,35.90
2018-07-30T14:06:35.902Z,35.90
2018-07-30T14:10:39.579Z,35.90
2018-07-30T14:14:43.261Z,35.90
2018-07-30T14:18:46.952Z,35.90
2018-07-30T14:22:50.677Z,35.90
2018-07-30T14:26:54.341Z,35.90
2018-07-30T14:30:58.016Z,35.80
2018-07-30T14:35:01.664Z,35.70
2018-07-30T14:39:07.914Z,35.50
2018-07-30T14:43:11.672Z,35.40
2018-07-30T14:47:15.369Z,35.40
2018-07-30T14:51:19.088Z,35.30
2018-07-30T14:55:22.775Z,35.20
2018-07-30T14:59:26.520Z,35.00
2018-07-30T15:03:30.686Z,34.90
2018-07-30T15:07:34.370Z,34.90
2018-07-30T15:11:38.475Z,34.80
2018-07-30T15:15:42.196Z,34.70
2018-07-30T15:19:45.880Z,34.50
2018-07-30T15:23:49.583Z,34.40
2018-07-30T15:27:53.288Z,34.30
2018-07-30T15:31:56.974Z,34.40
2018-07-30T15:36:00.724Z,34.50
2018-07-30T15:40:04.585Z,34.60
2018-07-30T15:44:08.283Z,34.70
2018-07-30T15:48:12.013Z,34.80
2018-07-30T15:52:15.763Z,34.90
2018-07-30T15:56:19.404Z,34.90
2018-07-30T16:00:23.089Z,34.90
2018-07-30T16:08:30.139Z,34.80
2018-07-30T16:12:33.812Z,34.80
2018-07-30T16:16:37.492Z,34.70
2018-07-30T16:20:41.192Z,34.70
2018-07-30T16:24:44.860Z,34.60
2018-07-30T16:28:48.576Z,34.60
2018-07-30T16:32:52.261Z,34.50
2018-07-30T16:36:55.896Z,34.50
2018-07-30T16:40:59.605Z,34.50
2018-07-30T16:45:03.372Z,34.40
2018-07-30T16:49:07.084Z,34.20
2018-07-30T16:53:10.839Z,34.10
2018-07-30T16:57:14.459Z,34.10
2018-07-30T17:01:18.235Z,34.00
2018-07-30T17:05:21.931Z,34.00
2018-07-30T17:09:25.620Z,33.90
2018-07-30T17:13:29.444Z,33.90
2018-07-30T17:17:33.127Z,33.90
2018-07-30T17:21:36.827Z,33.90
2018-07-30T17:25:40.532Z,33.80
2018-07-30T17:29:44.247Z,33.70
2018-07-30T17:33:47.931Z,33.70
2018-07-30T17:37:52.004Z,33.60
2018-07-30T17:41:55.717Z,33.50
2018-07-30T17:45:59.417Z,33.40
2018-07-30T17:50:03.099Z,33.30
2018-07-30T17:54:06.768Z,33.20
2018-07-30T17:58:10.468Z,33.10
2018-07-30T18:02:14.164Z,33.00
2018-07-30T18:06:17.872Z,32.80
2018-07-30T18:10:21.534Z,32.80
2018-07-30T18:14:25.172Z,32.60
2018-07-30T18:18:28.841Z,32.50
2018-07-30T18:22:32.578Z,32.50
2018-07-30T18:26:36.348Z,32.40
2018-07-30T18:30:40.036Z,32.30
2018-07-30T18:34:43.742Z,32.30
2018-07-30T18:38:47.514Z,32.30
2018-07-30T18:42:51.203Z,32.20
2018-07-30T18:46:55.831Z,32.10
2018-07-30T18:50:59.507Z,32.10
2018-07-30T18:55:03.189Z,32.00
2018-07-30T18:59:06.994Z,31.80
2018-07-30T19:03:10.661Z,31.80
2018-07-30T19:07:14.354Z,31.70
2018-07-30T19:11:18.014Z,31.60
2018-07-30T19:15:21.871Z,31.40
2018-07-30T19:19:25.555Z,31.30
2018-07-30T19:23:29.259Z,31.20
2018-07-30T19:27:32.928Z,31.10
2018-07-30T19:31:36.588Z,31.00
2018-07-30T19:35:40.260Z,30.90
2018-07-30T19:39:43.941Z,30.70
2018-07-30T19:43:47.623Z,30.60
2018-07-30T19:47:51.289Z,30.40
2018-07-30T19:51:55.034Z,30.30
2018-07-30T19:55:58.731Z,30.20
2018-07-30T20:00:02.467Z,30.00
2018-07-30T20:04:06.147Z,29.90
2018-07-30T20:08:09.828Z,29.80
2018-07-30T20:12:13.573Z,29.70
2018-07-30T20:16:17.231Z,29.60
2018-07-30T20:20:20.970Z,29.50
2018-07-30T20:24:24.662Z,29.30
2018-07-30T20:28:28.966Z,29.20
2018-07-30T20:32:32.645Z,29.10
2018-07-30T20:36:36.384Z,28.90
2018-07-30T20:40:40.147Z,28.80
2018-07-30T20:44:43.847Z,28.70
2018-07-30T20:48:47.495Z,28.60
2018-07-30T20:52:51.501Z,28.50
2018-07-30T20:56:55.172Z,28.40
2018-07-30T21:00:58.887Z,28.20
2018-07-30T21:05:02.655Z,28.10
2018-07-30T21:09:08.197Z,28.00
2018-07-30T21:13:11.993Z,27.90
2018-07-30T21:17:15.719Z,27.80
2018-07-30T21:21:19.477Z,27.70
2018-07-30T21:25:23.102Z,27.60
2018-07-30T21:29:26.791Z,27.50
2018-07-30T21:33:30.484Z,27.40
2018-07-30T21:37:34.288Z,27.40
2018-07-30T21:41:38.306Z,27.30
2018-07-30T21:45:41.951Z,27.30
2018-07-30T21:49:45.629Z,27.20
2018-07-30T21:53:49.301Z,27.20
2018-07-30T21:57:52.984Z,27.10
2018-07-30T22:01:56.745Z,27.00
2018-07-30T22:06:01.381Z,27.00
2018-07-30T22:10:05.121Z,27.00
2018-07-30T22:14:08.799Z,26.90
2018-07-30T22:18:12.490Z,26.80
2018-07-30T22:22:16.186Z,26.80
2018-07-30T22:26:19.832Z,26.70
2018-07-30T22:30:23.528Z,26.60
2018-07-30T22:34:27.205Z,26.50
2018-07-30T22:38:30.864Z,26.50
2018-07-30T22:42:34.543Z,26.40
2018-07-30T22:46:38.268Z,26.40
2018-07-30T22:50:42.327Z,26.30
2018-07-30T22:54:46.015Z,26.30
2018-07-30T22:58:49.693Z,26.20
2018-07-30T23:02:53.369Z,26.20
2018-07-30T23:06:57.059Z,26.10
2018-07-30T23:11:00.740Z,26.10
2018-07-30T23:15:04.505Z,26.00
2018-07-30T23:19:08.231Z,26.00
2018-07-30T23:23:11.921Z,26.00
2018-07-30T23:27:15.649Z,25.90
2018-07-30T23:31:19.308Z,25.90
2018-07-30T23:35:23.053Z,25.90
2018-07-30T23:39:26.760Z,25.80
2018-07-30T23:43:30.403Z,25.80
2018-07-30T23:47:34.088Z,25.70
2018-07-30T23:51:37.772Z,25.70
2018-07-30T23:55:41.465Z,25.60
2018-07-30T23:59:45.124Z,25.60
